sensor_id;sensor_type;location;lat;lon;timestamp;P1;durP1;ratioP1;P2;durP2;ratioP2
69392;SDS011;56582;44.624;20.378;2024-01-30T00:01:49;31.43;;;16.00;;
69392;SDS011;56582;44.624;20.378;2024-01-30T00:04:15;28.20;;;14.87;;
69392;SDS011;56582;44.624;20.378;2024-01-30T00:06:41;25.27;;;13.60;;
69392;SDS011;56582;44.624;20.378;2024-01-30T00:09:07;31.83;;;16.63;;
69392;SDS011;56582;44.624;20.378;2024-01-30T00:11:34;55.75;;;25.60;;
69392;SDS011;56582;44.624;20.378;2024-01-30T00:13:59;44.87;;;19.57;;
69392;SDS011;56582;44.624;20.378;2024-01-30T00:16:25;48.23;;;22.50;;
69392;SDS011;56582;44.624;20.378;2024-01-30T00:18:51;26.60;;;14.57;;
69392;SDS011;56582;44.624;20.378;2024-01-30T00:21:17;25.70;;;12.40;;
69392;SDS011;56582;44.624;20.378;2024-01-30T00:23:43;18.50;;;10.60;;
69392;SDS011;56582;44.624;20.378;2024-01-30T00:26:08;21.95;;;11.43;;
69392;SDS011;56582;44.624;20.378;2024-01-30T00:28:34;19.90;;;10.57;;
69392;SDS011;56582;44.624;20.378;2024-01-30T00:31:00;20.02;;;11.88;;
69392;SDS011;56582;44.624;20.378;2024-01-30T00:33:25;24.70;;;12.30;;
69392;SDS011;56582;44.624;20.378;2024-01-30T00:35:51;21.70;;;12.43;;
69392;SDS011;56582;44.624;20.378;2024-01-30T00:38:16;19.42;;;11.50;;
69392;SDS011;56582;44.624;20.378;2024-01-30T00:40:42;21.67;;;11.37;;
69392;SDS011;56582;44.624;20.378;2024-01-30T00:43:07;20.83;;;12.90;;
69392;SDS011;56582;44.624;20.378;2024-01-30T00:45:33;20.25;;;12.85;;
69392;SDS011;56582;44.624;20.378;2024-01-30T00:47:58;20.90;;;12.47;;
69392;SDS011;56582;44.624;20.378;2024-01-30T00:50:24;25.40;;;12.63;;
69392;SDS011;56582;44.624;20.378;2024-01-30T00:52:49;26.35;;;13.05;;
69392;SDS011;56582;44.624;20.378;2024-01-30T00:55:15;35.50;;;16.60;;
69392;SDS011;56582;44.624;20.378;2024-01-30T00:57:40;113.33;;;38.87;;
69392;SDS011;56582;44.624;20.378;2024-01-30T01:00:06;50.55;;;20.92;;
69392;SDS011;56582;44.624;20.378;2024-01-30T01:02:34;82.22;;;31.00;;
69392;SDS011;56582;44.624;20.378;2024-01-30T01:05:00;44.50;;;21.57;;
69392;SDS011;56582;44.624;20.378;2024-01-30T01:07:26;36.03;;;16.58;;
69392;SDS011;56582;44.624;20.378;2024-01-30T01:09:52;41.77;;;17.37;;
69392;SDS011;56582;44.624;20.378;2024-01-30T01:12:17;47.75;;;18.63;;
69392;SDS011;56582;44.624;20.378;2024-01-30T01:14:43;34.33;;;15.33;;
69392;SDS011;56582;44.624;20.378;2024-01-30T01:17:08;56.43;;;22.83;;
69392;SDS011;56582;44.624;20.378;2024-01-30T01:19:34;47.47;;;21.75;;
69392;SDS011;56582;44.624;20.378;2024-01-30T01:21:59;40.70;;;17.97;;
69392;SDS011;56582;44.624;20.378;2024-01-30T01:24:25;24.40;;;13.97;;
69392;SDS011;56582;44.624;20.378;2024-01-30T01:26:50;25.08;;;13.15;;
69392;SDS011;56582;44.624;20.378;2024-01-30T01:29:16;24.77;;;13.83;;
69392;SDS011;56582;44.624;20.378;2024-01-30T01:31:41;24.60;;;11.80;;
69392;SDS011;56582;44.624;20.378;2024-01-30T01:34:11;27.35;;;14.27;;
69392;SDS011;56582;44.624;20.378;2024-01-30T01:36:36;25.67;;;14.98;;
69392;SDS011;56582;44.624;20.378;2024-01-30T01:39:02;31.80;;;15.32;;
69392;SDS011;56582;44.624;20.378;2024-01-30T01:41:31;27.60;;;16.70;;
69392;SDS011;56582;44.624;20.378;2024-01-30T01:43:58;32.60;;;18.60;;
69392;SDS011;56582;44.624;20.378;2024-01-30T01:46:26;45.78;;;21.88;;
69392;SDS011;56582;44.624;20.378;2024-01-30T01:48:53;51.95;;;24.05;;
69392;SDS011;56582;44.624;20.378;2024-01-30T01:51:19;46.40;;;21.03;;
69392;SDS011;56582;44.624;20.378;2024-01-30T01:53:45;88.45;;;37.03;;
69392;SDS011;56582;44.624;20.378;2024-01-30T01:56:11;68.13;;;31.30;;
69392;SDS011;56582;44.624;20.378;2024-01-30T01:58:37;96.97;;;40.80;;
69392;SDS011;56582;44.624;20.378;2024-01-30T02:01:03;83.55;;;36.58;;
69392;SDS011;56582;44.624;20.378;2024-01-30T02:03:30;41.63;;;21.75;;
69392;SDS011;56582;44.624;20.378;2024-01-30T02:05:55;39.25;;;20.13;;
69392;SDS011;56582;44.624;20.378;2024-01-30T02:08:21;33.03;;;16.60;;
69392;SDS011;56582;44.624;20.378;2024-01-30T02:10:48;37.55;;;18.45;;
69392;SDS011;56582;44.624;20.378;2024-01-30T02:13:13;32.80;;;16.73;;
69392;SDS011;56582;44.624;20.378;2024-01-30T02:15:39;29.92;;;16.95;;
69392;SDS011;56582;44.624;20.378;2024-01-30T02:18:04;59.50;;;24.27;;
69392;SDS011;56582;44.624;20.378;2024-01-30T02:20:30;65.63;;;26.57;;
69392;SDS011;56582;44.624;20.378;2024-01-30T02:22:57;43.40;;;23.00;;
69392;SDS011;56582;44.624;20.378;2024-01-30T02:25:39;41.60;;;20.50;;
69392;SDS011;56582;44.624;20.378;2024-01-30T02:28:11;46.13;;;21.33;;
69392;SDS011;56582;44.624;20.378;2024-01-30T02:30:38;43.17;;;21.25;;
69392;SDS011;56582;44.624;20.378;2024-01-30T02:33:04;101.63;;;39.27;;
69392;SDS011;56582;44.624;20.378;2024-01-30T02:35:30;47.45;;;22.88;;
69392;SDS011;56582;44.624;20.378;2024-01-30T02:37:55;41.50;;;20.70;;
69392;SDS011;56582;44.624;20.378;2024-01-30T02:40:21;40.50;;;24.33;;
69392;SDS011;56582;44.624;20.378;2024-01-30T02:42:46;37.88;;;20.83;;
69392;SDS011;56582;44.624;20.378;2024-01-30T02:45:12;37.20;;;19.07;;
69392;SDS011;56582;44.624;20.378;2024-01-30T02:47:38;33.60;;;17.83;;
69392;SDS011;56582;44.624;20.378;2024-01-30T02:50:04;37.45;;;19.17;;
69392;SDS011;56582;44.624;20.378;2024-01-30T02:52:30;37.80;;;21.17;;
69392;SDS011;56582;44.624;20.378;2024-01-30T02:54:56;46.40;;;21.47;;
69392;SDS011;56582;44.624;20.378;2024-01-30T02:57:21;41.88;;;21.08;;
69392;SDS011;56582;44.624;20.378;2024-01-30T02:59:47;37.13;;;19.50;;
69392;SDS011;56582;44.624;20.378;2024-01-30T03:02:12;35.07;;;18.57;;
69392;SDS011;56582;44.624;20.378;2024-01-30T03:04:40;33.20;;;18.67;;
69392;SDS011;56582;44.624;20.378;2024-01-30T03:07:06;35.50;;;20.47;;
69392;SDS011;56582;44.624;20.378;2024-01-30T03:09:31;42.03;;;21.95;;
69392;SDS011;56582;44.624;20.378;2024-01-30T03:11:57;41.93;;;21.43;;
69392;SDS011;56582;44.624;20.378;2024-01-30T03:14:22;40.30;;;22.10;;
69392;SDS011;56582;44.624;20.378;2024-01-30T03:16:48;38.53;;;22.63;;
69392;SDS011;56582;44.624;20.378;2024-01-30T03:19:13;33.10;;;19.73;;
69392;SDS011;56582;44.624;20.378;2024-01-30T03:21:39;38.63;;;21.67;;
69392;SDS011;56582;44.624;20.378;2024-01-30T03:24:04;35.63;;;21.57;;
69392;SDS011;56582;44.624;20.378;2024-01-30T03:26:30;36.00;;;20.30;;
69392;SDS011;56582;44.624;20.378;2024-01-30T03:28:56;33.10;;;18.50;;
69392;SDS011;56582;44.624;20.378;2024-01-30T03:31:21;30.48;;;18.65;;
69392;SDS011;56582;44.624;20.378;2024-01-30T03:33:47;34.17;;;19.20;;
69392;SDS011;56582;44.624;20.378;2024-01-30T03:36:12;31.35;;;19.42;;
69392;SDS011;56582;44.624;20.378;2024-01-30T03:38:38;30.97;;;17.27;;
69392;SDS011;56582;44.624;20.378;2024-01-30T03:41:07;33.55;;;17.58;;
69392;SDS011;56582;44.624;20.378;2024-01-30T03:43:33;32.30;;;17.10;;
69392;SDS011;56582;44.624;20.378;2024-01-30T03:45:59;34.70;;;17.88;;
69392;SDS011;56582;44.624;20.378;2024-01-30T03:48:24;31.75;;;17.92;;
69392;SDS011;56582;44.624;20.378;2024-01-30T03:50:50;34.30;;;18.90;;
69392;SDS011;56582;44.624;20.378;2024-01-30T03:53:17;32.85;;;18.23;;
69392;SDS011;56582;44.624;20.378;2024-01-30T03:55:42;33.95;;;18.90;;
69392;SDS011;56582;44.624;20.378;2024-01-30T03:58:08;30.30;;;18.57;;
69392;SDS011;56582;44.624;20.378;2024-01-30T04:00:34;31.43;;;18.97;;
69392;SDS011;56582;44.624;20.378;2024-01-30T04:03:00;30.75;;;17.70;;
69392;SDS011;56582;44.624;20.378;2024-01-30T04:05:25;34.75;;;19.45;;
69392;SDS011;56582;44.624;20.378;2024-01-30T04:07:51;35.20;;;19.10;;
69392;SDS011;56582;44.624;20.378;2024-01-30T04:10:16;34.20;;;18.40;;
69392;SDS011;56582;44.624;20.378;2024-01-30T04:12:42;34.47;;;20.77;;
69392;SDS011;56582;44.624;20.378;2024-01-30T04:15:08;39.67;;;22.93;;
69392;SDS011;56582;44.624;20.378;2024-01-30T04:17:34;33.83;;;19.77;;
69392;SDS011;56582;44.624;20.378;2024-01-30T04:19:59;39.10;;;20.60;;
69392;SDS011;56582;44.624;20.378;2024-01-30T04:22:25;36.20;;;20.97;;
69392;SDS011;56582;44.624;20.378;2024-01-30T04:24:50;41.00;;;20.00;;
69392;SDS011;56582;44.624;20.378;2024-01-30T04:27:15;44.60;;;22.03;;
69392;SDS011;56582;44.624;20.378;2024-01-30T04:29:41;97.30;;;22.83;;
69392;SDS011;56582;44.624;20.378;2024-01-30T04:32:06;32.20;;;19.10;;
69392;SDS011;56582;44.624;20.378;2024-01-30T04:34:32;31.40;;;17.60;;
69392;SDS011;56582;44.624;20.378;2024-01-30T04:36:57;31.83;;;17.80;;
69392;SDS011;56582;44.624;20.378;2024-01-30T04:39:23;30.10;;;16.67;;
69392;SDS011;56582;44.624;20.378;2024-01-30T04:41:48;34.05;;;17.05;;
69392;SDS011;56582;44.624;20.378;2024-01-30T04:44:14;32.87;;;18.37;;
69392;SDS011;56582;44.624;20.378;2024-01-30T04:46:40;32.67;;;18.83;;
69392;SDS011;56582;44.624;20.378;2024-01-30T04:49:05;30.63;;;18.13;;
69392;SDS011;56582;44.624;20.378;2024-01-30T04:51:32;34.80;;;19.27;;
69392;SDS011;56582;44.624;20.378;2024-01-30T04:53:58;37.30;;;19.97;;
69392;SDS011;56582;44.624;20.378;2024-01-30T04:56:24;42.47;;;21.30;;
69392;SDS011;56582;44.624;20.378;2024-01-30T04:58:49;34.93;;;19.80;;
69392;SDS011;56582;44.624;20.378;2024-01-30T05:01:15;29.90;;;18.47;;
69392;SDS011;56582;44.624;20.378;2024-01-30T05:03:41;36.08;;;18.00;;
69392;SDS011;56582;44.624;20.378;2024-01-30T05:06:07;33.88;;;19.52;;
69392;SDS011;56582;44.624;20.378;2024-01-30T05:08:32;33.77;;;19.20;;
69392;SDS011;56582;44.624;20.378;2024-01-30T05:11:01;33.33;;;20.57;;
69392;SDS011;56582;44.624;20.378;2024-01-30T05:13:28;34.00;;;19.92;;
69392;SDS011;56582;44.624;20.378;2024-01-30T05:15:57;31.40;;;18.42;;
69392;SDS011;56582;44.624;20.378;2024-01-30T05:18:22;34.40;;;19.23;;
69392;SDS011;56582;44.624;20.378;2024-01-30T05:20:49;33.63;;;18.48;;
69392;SDS011;56582;44.624;20.378;2024-01-30T05:23:15;31.50;;;19.63;;
69392;SDS011;56582;44.624;20.378;2024-01-30T05:25:41;38.80;;;19.77;;
69392;SDS011;56582;44.624;20.378;2024-01-30T05:28:07;36.85;;;21.05;;
69392;SDS011;56582;44.624;20.378;2024-01-30T05:30:32;36.50;;;19.43;;
69392;SDS011;56582;44.624;20.378;2024-01-30T05:32:58;41.87;;;22.20;;
69392;SDS011;56582;44.624;20.378;2024-01-30T05:35:23;41.80;;;21.33;;
69392;SDS011;56582;44.624;20.378;2024-01-30T05:37:49;38.90;;;22.60;;
69392;SDS011;56582;44.624;20.378;2024-01-30T05:40:15;36.70;;;22.05;;
69392;SDS011;56582;44.624;20.378;2024-01-30T05:42:41;41.40;;;22.00;;
69392;SDS011;56582;44.624;20.378;2024-01-30T05:45:07;40.92;;;22.17;;
69392;SDS011;56582;44.624;20.378;2024-01-30T05:47:33;35.42;;;20.38;;
69392;SDS011;56582;44.624;20.378;2024-01-30T05:49:59;38.38;;;20.88;;
69392;SDS011;56582;44.624;20.378;2024-01-30T05:52:25;39.90;;;20.80;;
69392;SDS011;56582;44.624;20.378;2024-01-30T05:54:50;35.57;;;21.97;;
69392;SDS011;56582;44.624;20.378;2024-01-30T05:57:16;39.78;;;22.75;;
69392;SDS011;56582;44.624;20.378;2024-01-30T05:59:42;41.90;;;22.53;;
69392;SDS011;56582;44.624;20.378;2024-01-30T06:02:10;40.97;;;21.48;;
69392;SDS011;56582;44.624;20.378;2024-01-30T06:04:35;53.58;;;27.23;;
69392;SDS011;56582;44.624;20.378;2024-01-30T06:07:01;42.37;;;24.67;;
69392;SDS011;56582;44.624;20.378;2024-01-30T06:09:27;38.45;;;22.48;;
69392;SDS011;56582;44.624;20.378;2024-01-30T06:11:53;41.80;;;24.35;;
69392;SDS011;56582;44.624;20.378;2024-01-30T06:14:19;40.57;;;23.87;;
69392;SDS011;56582;44.624;20.378;2024-01-30T06:16:44;38.77;;;21.83;;
69392;SDS011;56582;44.624;20.378;2024-01-30T06:19:10;42.60;;;21.30;;
69392;SDS011;56582;44.624;20.378;2024-01-30T06:21:36;64.43;;;29.37;;
69392;SDS011;56582;44.624;20.378;2024-01-30T06:24:02;49.47;;;25.73;;
69392;SDS011;56582;44.624;20.378;2024-01-30T06:26:28;39.00;;;20.07;;
69392;SDS011;56582;44.624;20.378;2024-01-30T06:28:53;34.90;;;18.13;;
69392;SDS011;56582;44.624;20.378;2024-01-30T06:31:18;34.87;;;18.17;;
69392;SDS011;56582;44.624;20.378;2024-01-30T06:33:46;40.73;;;21.00;;
69392;SDS011;56582;44.624;20.378;2024-01-30T06:36:12;65.85;;;32.83;;
69392;SDS011;56582;44.624;20.378;2024-01-30T06:38:37;42.78;;;23.38;;
69392;SDS011;56582;44.624;20.378;2024-01-30T06:41:03;34.47;;;19.63;;
69392;SDS011;56582;44.624;20.378;2024-01-30T06:43:29;37.93;;;20.27;;
69392;SDS011;56582;44.624;20.378;2024-01-30T06:45:54;37.80;;;19.27;;
69392;SDS011;56582;44.624;20.378;2024-01-30T06:48:20;32.63;;;19.20;;
69392;SDS011;56582;44.624;20.378;2024-01-30T06:50:45;33.87;;;20.13;;
69392;SDS011;56582;44.624;20.378;2024-01-30T06:53:11;31.98;;;21.40;;
69392;SDS011;56582;44.624;20.378;2024-01-30T06:55:36;32.30;;;20.20;;
69392;SDS011;56582;44.624;20.378;2024-01-30T06:58:02;38.80;;;23.63;;
69392;SDS011;56582;44.624;20.378;2024-01-30T07:00:27;38.15;;;22.60;;
69392;SDS011;56582;44.624;20.378;2024-01-30T07:02:53;36.37;;;20.27;;
69392;SDS011;56582;44.624;20.378;2024-01-30T07:05:18;33.87;;;20.50;;
69392;SDS011;56582;44.624;20.378;2024-01-30T07:07:44;35.90;;;18.45;;
69392;SDS011;56582;44.624;20.378;2024-01-30T07:10:09;32.47;;;20.33;;
69392;SDS011;56582;44.624;20.378;2024-01-30T07:12:35;34.10;;;19.93;;
69392;SDS011;56582;44.624;20.378;2024-01-30T07:15:00;44.35;;;23.02;;
69392;SDS011;56582;44.624;20.378;2024-01-30T07:17:28;31.63;;;20.42;;
69392;SDS011;56582;44.624;20.378;2024-01-30T07:19:53;35.27;;;19.83;;
69392;SDS011;56582;44.624;20.378;2024-01-30T07:22:19;39.13;;;23.40;;
69392;SDS011;56582;44.624;20.378;2024-01-30T07:24:44;61.58;;;38.53;;
69392;SDS011;56582;44.624;20.378;2024-01-30T07:27:12;35.57;;;20.37;;
69392;SDS011;56582;44.624;20.378;2024-01-30T07:29:38;30.33;;;17.63;;
69392;SDS011;56582;44.624;20.378;2024-01-30T07:32:03;27.95;;;17.65;;
69392;SDS011;56582;44.624;20.378;2024-01-30T07:34:29;28.03;;;16.73;;
69392;SDS011;56582;44.624;20.378;2024-01-30T07:36:54;25.73;;;15.40;;
69392;SDS011;56582;44.624;20.378;2024-01-30T07:39:20;27.83;;;17.00;;
69392;SDS011;56582;44.624;20.378;2024-01-30T07:41:46;24.30;;;16.30;;
69392;SDS011;56582;44.624;20.378;2024-01-30T07:44:12;36.47;;;21.63;;
69392;SDS011;56582;44.624;20.378;2024-01-30T07:46:37;27.97;;;19.10;;
69392;SDS011;56582;44.624;20.378;2024-01-30T07:49:03;28.17;;;16.40;;
69392;SDS011;56582;44.624;20.378;2024-01-30T07:51:29;25.48;;;15.77;;
69392;SDS011;56582;44.624;20.378;2024-01-30T07:53:56;24.07;;;15.30;;
69392;SDS011;56582;44.624;20.378;2024-01-30T07:56:22;34.30;;;21.20;;
69392;SDS011;56582;44.624;20.378;2024-01-30T07:58:48;23.77;;;14.30;;
69392;SDS011;56582;44.624;20.378;2024-01-30T08:01:14;24.53;;;15.77;;
69392;SDS011;56582;44.624;20.378;2024-01-30T08:03:40;19.02;;;12.25;;
69392;SDS011;56582;44.624;20.378;2024-01-30T08:06:06;20.27;;;11.97;;
69392;SDS011;56582;44.624;20.378;2024-01-30T08:08:32;18.50;;;12.57;;
69392;SDS011;56582;44.624;20.378;2024-01-30T08:10:58;20.85;;;12.82;;
69392;SDS011;56582;44.624;20.378;2024-01-30T08:13:23;20.27;;;12.23;;
69392;SDS011;56582;44.624;20.378;2024-01-30T08:15:49;18.53;;;12.23;;
69392;SDS011;56582;44.624;20.378;2024-01-30T08:18:14;20.25;;;12.75;;
69392;SDS011;56582;44.624;20.378;2024-01-30T08:20:40;18.30;;;12.03;;
69392;SDS011;56582;44.624;20.378;2024-01-30T08:23:05;24.07;;;17.63;;
69392;SDS011;56582;44.624;20.378;2024-01-30T08:25:31;24.52;;;15.55;;
69392;SDS011;56582;44.624;20.378;2024-01-30T08:27:57;47.90;;;29.60;;
69392;SDS011;56582;44.624;20.378;2024-01-30T08:30:22;24.30;;;16.00;;
69392;SDS011;56582;44.624;20.378;2024-01-30T08:32:48;17.93;;;12.80;;
69392;SDS011;56582;44.624;20.378;2024-01-30T08:35:13;24.43;;;19.30;;
69392;SDS011;56582;44.624;20.378;2024-01-30T08:37:41;19.33;;;13.77;;
69392;SDS011;56582;44.624;20.378;2024-01-30T08:40:07;19.23;;;15.03;;
69392;SDS011;56582;44.624;20.378;2024-01-30T08:42:33;32.88;;;21.35;;
69392;SDS011;56582;44.624;20.378;2024-01-30T08:44:59;26.48;;;19.27;;
69392;SDS011;56582;44.624;20.378;2024-01-30T08:47:24;30.83;;;21.50;;
69392;SDS011;56582;44.624;20.378;2024-01-30T08:49:50;23.38;;;17.15;;
69392;SDS011;56582;44.624;20.378;2024-01-30T08:52:16;21.33;;;13.97;;
69392;SDS011;56582;44.624;20.378;2024-01-30T08:54:42;31.13;;;20.67;;
69392;SDS011;56582;44.624;20.378;2024-01-30T08:57:08;28.30;;;16.77;;
69392;SDS011;56582;44.624;20.378;2024-01-30T08:59:33;17.00;;;10.03;;
69392;SDS011;56582;44.624;20.378;2024-01-30T09:01:59;21.63;;;15.37;;
69392;SDS011;56582;44.624;20.378;2024-01-30T09:04:24;17.95;;;11.50;;
69392;SDS011;56582;44.624;20.378;2024-01-30T09:06:50;18.03;;;11.73;;
69392;SDS011;56582;44.624;20.378;2024-01-30T09:09:16;34.78;;;20.02;;
69392;SDS011;56582;44.624;20.378;2024-01-30T09:11:42;19.42;;;13.68;;
69392;SDS011;56582;44.624;20.378;2024-01-30T09:14:08;16.30;;;11.40;;
69392;SDS011;56582;44.624;20.378;2024-01-30T09:16:39;25.55;;;17.95;;
69392;SDS011;56582;44.624;20.378;2024-01-30T09:19:20;17.17;;;12.73;;
69392;SDS011;56582;44.624;20.378;2024-01-30T09:21:46;20.87;;;13.33;;
69392;SDS011;56582;44.624;20.378;2024-01-30T09:24:12;15.88;;;11.68;;
69392;SDS011;56582;44.624;20.378;2024-01-30T09:26:37;15.27;;;11.00;;
69392;SDS011;56582;44.624;20.378;2024-01-30T09:29:03;17.43;;;11.23;;
69392;SDS011;56582;44.624;20.378;2024-01-30T09:31:28;18.10;;;12.32;;
69392;SDS011;56582;44.624;20.378;2024-01-30T09:33:54;16.93;;;11.87;;
69392;SDS011;56582;44.624;20.378;2024-01-30T09:36:19;12.13;;;8.93;;
69392;SDS011;56582;44.624;20.378;2024-01-30T09:38:45;13.40;;;9.93;;
69392;SDS011;56582;44.624;20.378;2024-01-30T09:41:11;16.30;;;8.88;;
69392;SDS011;56582;44.624;20.378;2024-01-30T09:43:37;15.27;;;10.23;;
69392;SDS011;56582;44.624;20.378;2024-01-30T09:46:04;14.13;;;9.43;;
69392;SDS011;56582;44.624;20.378;2024-01-30T09:48:30;16.95;;;11.02;;
69392;SDS011;56582;44.624;20.378;2024-01-30T09:50:57;16.08;;;10.57;;
69392;SDS011;56582;44.624;20.378;2024-01-30T09:53:23;17.13;;;11.77;;
69392;SDS011;56582;44.624;20.378;2024-01-30T09:55:49;18.50;;;12.55;;
69392;SDS011;56582;44.624;20.378;2024-01-30T09:58:15;16.75;;;10.98;;
69392;SDS011;56582;44.624;20.378;2024-01-30T10:00:41;16.00;;;11.60;;
69392;SDS011;56582;44.624;20.378;2024-01-30T10:03:07;15.70;;;10.75;;
69392;SDS011;56582;44.624;20.378;2024-01-30T10:05:33;15.43;;;9.50;;
69392;SDS011;56582;44.624;20.378;2024-01-30T10:08:05;27.98;;;16.90;;
69392;SDS011;56582;44.624;20.378;2024-01-30T10:10:31;12.90;;;9.67;;
69392;SDS011;56582;44.624;20.378;2024-01-30T10:12:57;11.07;;;7.68;;
69392;SDS011;56582;44.624;20.378;2024-01-30T10:15:22;13.30;;;7.90;;
69392;SDS011;56582;44.624;20.378;2024-01-30T10:17:49;12.38;;;8.32;;
69392;SDS011;56582;44.624;20.378;2024-01-30T10:20:14;15.32;;;12.27;;
69392;SDS011;56582;44.624;20.378;2024-01-30T10:22:42;12.47;;;9.40;;
69392;SDS011;56582;44.624;20.378;2024-01-30T10:25:09;13.00;;;9.07;;
69392;SDS011;56582;44.624;20.378;2024-01-30T10:27:35;17.77;;;10.37;;
69392;SDS011;56582;44.624;20.378;2024-01-30T10:30:00;14.35;;;9.45;;
69392;SDS011;56582;44.624;20.378;2024-01-30T10:32:26;25.73;;;19.07;;
69392;SDS011;56582;44.624;20.378;2024-01-30T10:34:52;15.20;;;11.82;;
69392;SDS011;56582;44.624;20.378;2024-01-30T10:37:17;17.97;;;14.57;;
69392;SDS011;56582;44.624;20.378;2024-01-30T10:39:46;16.63;;;12.90;;
69392;SDS011;56582;44.624;20.378;2024-01-30T10:42:21;13.17;;;11.47;;
69392;SDS011;56582;44.624;20.378;2024-01-30T10:47:18;12.40;;;8.70;;
69392;SDS011;56582;44.624;20.378;2024-01-30T10:49:47;11.85;;;8.35;;
69392;SDS011;56582;44.624;20.378;2024-01-30T10:52:13;13.13;;;8.48;;
69392;SDS011;56582;44.624;20.378;2024-01-30T10:54:40;14.30;;;10.50;;
69392;SDS011;56582;44.624;20.378;2024-01-30T10:57:08;13.32;;;11.38;;
69392;SDS011;56582;44.624;20.378;2024-01-30T10:59:35;12.93;;;9.77;;
69392;SDS011;56582;44.624;20.378;2024-01-30T11:02:01;9.48;;;8.00;;
69392;SDS011;56582;44.624;20.378;2024-01-30T11:04:27;9.50;;;7.03;;
69392;SDS011;56582;44.624;20.378;2024-01-30T11:07:00;11.80;;;8.38;;
69392;SDS011;56582;44.624;20.378;2024-01-30T11:09:28;11.90;;;8.47;;
69392;SDS011;56582;44.624;20.378;2024-01-30T11:11:58;12.20;;;9.15;;
69392;SDS011;56582;44.624;20.378;2024-01-30T11:14:30;12.02;;;8.77;;
69392;SDS011;56582;44.624;20.378;2024-01-30T11:16:59;11.15;;;7.88;;
69392;SDS011;56582;44.624;20.378;2024-01-30T11:19:25;10.43;;;7.45;;
69392;SDS011;56582;44.624;20.378;2024-01-30T11:21:54;10.37;;;7.57;;
69392;SDS011;56582;44.624;20.378;2024-01-30T11:24:22;14.35;;;10.27;;
69392;SDS011;56582;44.624;20.378;2024-01-30T11:27:01;10.95;;;8.00;;
69392;SDS011;56582;44.624;20.378;2024-01-30T11:29:33;11.90;;;8.30;;
69392;SDS011;56582;44.624;20.378;2024-01-30T11:32:00;10.73;;;7.82;;
69392;SDS011;56582;44.624;20.378;2024-01-30T11:34:26;16.67;;;11.97;;
69392;SDS011;56582;44.624;20.378;2024-01-30T11:36:58;12.32;;;9.07;;
69392;SDS011;56582;44.624;20.378;2024-01-30T11:39:27;9.57;;;6.10;;
69392;SDS011;56582;44.624;20.378;2024-01-30T11:41:55;10.50;;;7.57;;
69392;SDS011;56582;44.624;20.378;2024-01-30T11:44:21;16.38;;;12.30;;
69392;SDS011;56582;44.624;20.378;2024-01-30T11:46:50;41.90;;;35.45;;
69392;SDS011;56582;44.624;20.378;2024-01-30T11:49:16;8.32;;;6.05;;
69392;SDS011;56582;44.624;20.378;2024-01-30T11:51:43;11.30;;;8.83;;
69392;SDS011;56582;44.624;20.378;2024-01-30T11:54:10;9.43;;;6.60;;
69392;SDS011;56582;44.624;20.378;2024-01-30T11:56:36;9.38;;;7.43;;
69392;SDS011;56582;44.624;20.378;2024-01-30T11:59:03;13.68;;;10.05;;
69392;SDS011;56582;44.624;20.378;2024-01-30T12:01:29;10.73;;;7.73;;
69392;SDS011;56582;44.624;20.378;2024-01-30T12:03:56;9.02;;;6.88;;
69392;SDS011;56582;44.624;20.378;2024-01-30T12:06:22;9.02;;;6.55;;
69392;SDS011;56582;44.624;20.378;2024-01-30T12:11:24;8.57;;;6.77;;
69392;SDS011;56582;44.624;20.378;2024-01-30T12:13:51;11.70;;;7.70;;
69392;SDS011;56582;44.624;20.378;2024-01-30T12:16:18;12.57;;;7.68;;
69392;SDS011;56582;44.624;20.378;2024-01-30T12:18:44;8.85;;;6.03;;
69392;SDS011;56582;44.624;20.378;2024-01-30T12:21:10;10.60;;;9.10;;
69392;SDS011;56582;44.624;20.378;2024-01-30T12:23:35;8.85;;;6.47;;
69392;SDS011;56582;44.624;20.378;2024-01-30T12:26:01;9.27;;;7.20;;
69392;SDS011;56582;44.624;20.378;2024-01-30T12:28:29;21.08;;;10.82;;
69392;SDS011;56582;44.624;20.378;2024-01-30T12:31:00;8.48;;;5.93;;
69392;SDS011;56582;44.624;20.378;2024-01-30T12:33:29;10.43;;;7.40;;
69392;SDS011;56582;44.624;20.378;2024-01-30T12:35:56;7.90;;;5.63;;
69392;SDS011;56582;44.624;20.378;2024-01-30T12:38:22;9.63;;;6.03;;
69392;SDS011;56582;44.624;20.378;2024-01-30T12:40:50;10.23;;;7.38;;
69392;SDS011;56582;44.624;20.378;2024-01-30T12:43:20;11.05;;;7.32;;
69392;SDS011;56582;44.624;20.378;2024-01-30T12:45:46;18.83;;;10.07;;
69392;SDS011;56582;44.624;20.378;2024-01-30T12:48:12;14.18;;;10.13;;
69392;SDS011;56582;44.624;20.378;2024-01-30T12:50:37;8.82;;;6.82;;
69392;SDS011;56582;44.624;20.378;2024-01-30T12:53:03;9.03;;;6.67;;
69392;SDS011;56582;44.624;20.378;2024-01-30T12:55:29;10.23;;;7.15;;
69392;SDS011;56582;44.624;20.378;2024-01-30T12:57:55;9.83;;;7.27;;
69392;SDS011;56582;44.624;20.378;2024-01-30T13:00:21;11.55;;;8.43;;
69392;SDS011;56582;44.624;20.378;2024-01-30T13:02:47;9.18;;;7.15;;
69392;SDS011;56582;44.624;20.378;2024-01-30T13:05:13;11.32;;;7.22;;
69392;SDS011;56582;44.624;20.378;2024-01-30T13:07:39;10.30;;;6.50;;
69392;SDS011;56582;44.624;20.378;2024-01-30T13:10:05;11.20;;;8.20;;
69392;SDS011;56582;44.624;20.378;2024-01-30T13:12:31;11.57;;;8.23;;
69392;SDS011;56582;44.624;20.378;2024-01-30T13:14:58;10.85;;;7.30;;
69392;SDS011;56582;44.624;20.378;2024-01-30T13:17:26;15.70;;;9.32;;
69392;SDS011;56582;44.624;20.378;2024-01-30T13:19:51;11.23;;;6.85;;
69392;SDS011;56582;44.624;20.378;2024-01-30T13:22:17;11.47;;;6.83;;
69392;SDS011;56582;44.624;20.378;2024-01-30T13:24:42;10.03;;;6.60;;
69392;SDS011;56582;44.624;20.378;2024-01-30T13:27:08;10.90;;;8.35;;
69392;SDS011;56582;44.624;20.378;2024-01-30T13:29:34;10.57;;;7.07;;
69392;SDS011;56582;44.624;20.378;2024-01-30T13:31:59;12.00;;;7.30;;
69392;SDS011;56582;44.624;20.378;2024-01-30T13:34:25;10.75;;;7.65;;
69392;SDS011;56582;44.624;20.378;2024-01-30T13:36:50;12.17;;;8.67;;
69392;SDS011;56582;44.624;20.378;2024-01-30T13:39:17;12.75;;;8.65;;
69392;SDS011;56582;44.624;20.378;2024-01-30T13:41:42;12.68;;;7.97;;
69392;SDS011;56582;44.624;20.378;2024-01-30T13:44:08;12.40;;;7.70;;
69392;SDS011;56582;44.624;20.378;2024-01-30T13:46:34;12.45;;;8.55;;
69392;SDS011;56582;44.624;20.378;2024-01-30T13:49:00;13.77;;;9.88;;
69392;SDS011;56582;44.624;20.378;2024-01-30T13:51:26;11.90;;;8.57;;
69392;SDS011;56582;44.624;20.378;2024-01-30T13:53:52;14.48;;;8.75;;
69392;SDS011;56582;44.624;20.378;2024-01-30T13:56:17;12.77;;;8.67;;
69392;SDS011;56582;44.624;20.378;2024-01-30T13:58:44;15.05;;;10.13;;
69392;SDS011;56582;44.624;20.378;2024-01-30T14:01:10;13.05;;;9.25;;
69392;SDS011;56582;44.624;20.378;2024-01-30T14:03:35;11.43;;;8.10;;
69392;SDS011;56582;44.624;20.378;2024-01-30T14:06:01;14.07;;;9.80;;
69392;SDS011;56582;44.624;20.378;2024-01-30T14:08:26;11.70;;;7.82;;
69392;SDS011;56582;44.624;20.378;2024-01-30T14:10:53;14.48;;;9.15;;
69392;SDS011;56582;44.624;20.378;2024-01-30T14:13:20;11.83;;;7.10;;